sensor_id;sensor_type;location;lat;lon;timestamp;temperature;humidity
69589;SHT31;56792;50.644;17.984;2023-04-21T00:00:24;6.43;78.36
69589;SHT31;56792;50.644;17.984;2023-04-21T00:02:55;6.38;78.44
69589;SHT31;56792;50.644;17.984;2023-04-21T00:05:27;6.35;78.48
69589;SHT31;56792;50.644;17.984;2023-04-21T00:07:58;6.32;78.49
69589;SHT31;56792;50.644;17.984;2023-04-21T00:10:29;6.26;78.51
69589;SHT31;56792;50.644;17.984;2023-04-21T00:13:00;6.24;78.56
69589;SHT31;56792;50.644;17.984;2023-04-21T00:15:31;6.21;78.63
69589;SHT31;56792;50.644;17.984;2023-04-21T00:18:03;6.17;78.61
69589;SHT31;56792;50.644;17.984;2023-04-21T00:20:35;6.13;78.64
69589;SHT31;56792;50.644;17.984;2023-04-21T00:23:06;6.10;78.65
69589;SHT31;56792;50.644;17.984;2023-04-21T00:25:37;6.05;78.78
69589;SHT31;56792;50.644;17.984;2023-04-21T00:28:08;6.01;78.91
69589;SHT31;56792;50.644;17.984;2023-04-21T00:30:39;5.99;79.01
69589;SHT31;56792;50.644;17.984;2023-04-21T00:33:10;5.95;79.00
69589;SHT31;56792;50.644;17.984;2023-04-21T00:35:41;5.91;79.06
69589;SHT31;56792;50.644;17.984;2023-04-21T00:38:12;5.87;79.11
69589;SHT31;56792;50.644;17.984;2023-04-21T00:40:43;5.84;79.21
69589;SHT31;56792;50.644;17.984;2023-04-21T00:43:14;5.82;79.19
69589;SHT31;56792;50.644;17.984;2023-04-21T00:45:45;5.78;79.09
69589;SHT31;56792;50.644;17.984;2023-04-21T00:48:17;5.74;79.18
69589;SHT31;56792;50.644;17.984;2023-04-21T00:50:48;5.71;79.35
69589;SHT31;56792;50.644;17.984;2023-04-21T00:53:19;5.67;79.39
69589;SHT31;56792;50.644;17.984;2023-04-21T00:55:50;5.63;79.44
69589;SHT31;56792;50.644;17.984;2023-04-21T00:58:22;5.60;79.47
69589;SHT31;56792;50.644;17.984;2023-04-21T01:00:54;5.59;79.28
69589;SHT31;56792;50.644;17.984;2023-04-21T01:03:25;5.57;79.20
69589;SHT31;56792;50.644;17.984;2023-04-21T01:05:57;5.53;79.04
69589;SHT31;56792;50.644;17.984;2023-04-21T01:08:29;5.51;79.07
69589;SHT31;56792;50.644;17.984;2023-04-21T01:11:07;5.48;79.20
69589;SHT31;56792;50.644;17.984;2023-04-21T01:13:40;5.45;79.35
69589;SHT31;56792;50.644;17.984;2023-04-21T01:16:14;5.41;79.47
69589;SHT31;56792;50.644;17.984;2023-04-21T01:18:46;5.38;79.59
69589;SHT31;56792;50.644;17.984;2023-04-21T01:21:19;5.35;79.59
69589;SHT31;56792;50.644;17.984;2023-04-21T01:23:50;5.33;79.60
69589;SHT31;56792;50.644;17.984;2023-04-21T01:26:21;5.31;79.63
69589;SHT31;56792;50.644;17.984;2023-04-21T01:28:54;5.28;79.71
69589;SHT31;56792;50.644;17.984;2023-04-21T01:31:26;5.25;79.71
69589;SHT31;56792;50.644;17.984;2023-04-21T01:33:57;5.22;79.81
69589;SHT31;56792;50.644;17.984;2023-04-21T01:36:33;5.18;79.89
69589;SHT31;56792;50.644;17.984;2023-04-21T01:39:05;5.16;79.86
69589;SHT31;56792;50.644;17.984;2023-04-21T01:41:36;5.12;79.87
69589;SHT31;56792;50.644;17.984;2023-04-21T01:44:07;5.11;79.93
69589;SHT31;56792;50.644;17.984;2023-04-21T01:46:38;5.08;80.01
69589;SHT31;56792;50.644;17.984;2023-04-21T01:49:09;5.04;79.99
69589;SHT31;56792;50.644;17.984;2023-04-21T01:51:40;5.01;80.11
69589;SHT31;56792;50.644;17.984;2023-04-21T01:54:11;4.98;80.17
69589;SHT31;56792;50.644;17.984;2023-04-21T01:56:42;4.96;80.11
69589;SHT31;56792;50.644;17.984;2023-04-21T01:59:13;4.93;80.17
69589;SHT31;56792;50.644;17.984;2023-04-21T02:01:45;4.91;80.11
69589;SHT31;56792;50.644;17.984;2023-04-21T02:04:16;4.91;80.22
69589;SHT31;56792;50.644;17.984;2023-04-21T02:06:47;4.90;80.17
69589;SHT31;56792;50.644;17.984;2023-04-21T02:09:18;4.88;80.12
69589;SHT31;56792;50.644;17.984;2023-04-21T02:11:53;4.86;80.09
69589;SHT31;56792;50.644;17.984;2023-04-21T02:14:24;4.84;80.09
69589;SHT31;56792;50.644;17.984;2023-04-21T02:16:56;4.80;80.15
69589;SHT31;56792;50.644;17.984;2023-04-21T02:19:29;4.79;80.18
69589;SHT31;56792;50.644;17.984;2023-04-21T02:22:00;4.75;80.31
69589;SHT31;56792;50.644;17.984;2023-04-21T02:24:32;4.74;80.49
69589;SHT31;56792;50.644;17.984;2023-04-21T02:27:03;4.71;80.45
69589;SHT31;56792;50.644;17.984;2023-04-21T02:29:34;4.68;80.55
69589;SHT31;56792;50.644;17.984;2023-04-21T02:32:07;4.66;80.64
69589;SHT31;56792;50.644;17.984;2023-04-21T02:34:38;4.64;80.60
69589;SHT31;56792;50.644;17.984;2023-04-21T02:37:09;4.62;80.62
69589;SHT31;56792;50.644;17.984;2023-04-21T02:39:40;4.61;80.70
69589;SHT31;56792;50.644;17.984;2023-04-21T02:42:11;4.58;80.59
69589;SHT31;56792;50.644;17.984;2023-04-21T02:44:42;4.56;80.57
69589;SHT31;56792;50.644;17.984;2023-04-21T02:47:15;4.54;80.54
69589;SHT31;56792;50.644;17.984;2023-04-21T02:49:46;4.52;80.43
69589;SHT31;56792;50.644;17.984;2023-04-21T02:52:17;4.49;80.44
69589;SHT31;56792;50.644;17.984;2023-04-21T02:54:48;4.47;80.60
69589;SHT31;56792;50.644;17.984;2023-04-21T02:57:19;4.44;80.60
69589;SHT31;56792;50.644;17.984;2023-04-21T02:59:50;4.43;80.53
69589;SHT31;56792;50.644;17.984;2023-04-21T03:02:21;4.40;80.50
69589;SHT31;56792;50.644;17.984;2023-04-21T03:04:52;4.36;80.42
69589;SHT31;56792;50.644;17.984;2023-04-21T03:07:23;4.35;80.36
69589;SHT31;56792;50.644;17.984;2023-04-21T03:09:54;4.31;80.25
69589;SHT31;56792;50.644;17.984;2023-04-21T03:12:27;4.30;80.45
69589;SHT31;56792;50.644;17.984;2023-04-21T03:14:58;4.26;80.50
69589;SHT31;56792;50.644;17.984;2023-04-21T03:17:29;4.24;80.53
69589;SHT31;56792;50.644;17.984;2023-04-21T03:20:00;4.21;80.67
69589;SHT31;56792;50.644;17.984;2023-04-21T03:22:33;4.19;80.66
69589;SHT31;56792;50.644;17.984;2023-04-21T03:25:05;4.17;80.70
69589;SHT31;56792;50.644;17.984;2023-04-21T03:27:37;4.14;80.72
69589;SHT31;56792;50.644;17.984;2023-04-21T03:30:09;4.12;80.84
69589;SHT31;56792;50.644;17.984;2023-04-21T03:32:41;4.10;80.91
69589;SHT31;56792;50.644;17.984;2023-04-21T03:35:12;4.09;80.87
69589;SHT31;56792;50.644;17.984;2023-04-21T03:37:43;4.08;80.93
69589;SHT31;56792;50.644;17.984;2023-04-21T03:40:15;4.07;80.92
69589;SHT31;56792;50.644;17.984;2023-04-21T03:42:46;4.05;80.88
69589;SHT31;56792;50.644;17.984;2023-04-21T03:45:17;4.01;80.81
69589;SHT31;56792;50.644;17.984;2023-04-21T03:47:49;4.01;80.80
69589;SHT31;56792;50.644;17.984;2023-04-21T03:50:26;4.02;80.91
69589;SHT31;56792;50.644;17.984;2023-04-21T03:52:59;4.01;81.07
69589;SHT31;56792;50.644;17.984;2023-04-21T03:55:30;4.00;81.04
69589;SHT31;56792;50.644;17.984;2023-04-21T03:58:01;4.00;81.08
69589;SHT31;56792;50.644;17.984;2023-04-21T04:00:32;4.00;81.00
69589;SHT31;56792;50.644;17.984;2023-04-21T04:03:03;4.01;81.01
69589;SHT31;56792;50.644;17.984;2023-04-21T04:05:35;4.01;81.16
69589;SHT31;56792;50.644;17.984;2023-04-21T04:08:06;4.01;81.34
69589;SHT31;56792;50.644;17.984;2023-04-21T04:10:37;4.03;81.37
69589;SHT31;56792;50.644;17.984;2023-04-21T04:13:08;4.04;81.41
69589;SHT31;56792;50.644;17.984;2023-04-21T04:15:39;4.04;81.57
69589;SHT31;56792;50.644;17.984;2023-04-21T04:18:10;4.07;81.52
69589;SHT31;56792;50.644;17.984;2023-04-21T04:20:41;4.08;81.48
69589;SHT31;56792;50.644;17.984;2023-04-21T04:23:12;4.09;81.46
69589;SHT31;56792;50.644;17.984;2023-04-21T04:25:43;4.11;81.54
69589;SHT31;56792;50.644;17.984;2023-04-21T04:28:14;4.15;81.60
69589;SHT31;56792;50.644;17.984;2023-04-21T04:30:48;4.18;81.54
69589;SHT31;56792;50.644;17.984;2023-04-21T04:33:20;4.20;81.49
69589;SHT31;56792;50.644;17.984;2023-04-21T04:35:51;4.22;81.40
69589;SHT31;56792;50.644;17.984;2023-04-21T04:38:23;4.25;81.53
69589;SHT31;56792;50.644;17.984;2023-04-21T04:40:55;4.30;81.76
69589;SHT31;56792;50.644;17.984;2023-04-21T04:43:27;4.34;81.93
69589;SHT31;56792;50.644;17.984;2023-04-21T04:46:02;4.39;82.02
69589;SHT31;56792;50.644;17.984;2023-04-21T04:48:34;4.44;82.12
69589;SHT31;56792;50.644;17.984;2023-04-21T04:51:06;4.50;82.29
69589;SHT31;56792;50.644;17.984;2023-04-21T04:53:37;4.56;82.39
69589;SHT31;56792;50.644;17.984;2023-04-21T04:56:08;4.62;82.49
69589;SHT31;56792;50.644;17.984;2023-04-21T04:58:39;4.70;82.59
69589;SHT31;56792;50.644;17.984;2023-04-21T05:01:12;4.77;82.60
69589;SHT31;56792;50.644;17.984;2023-04-21T05:03:44;4.84;82.63
69589;SHT31;56792;50.644;17.984;2023-04-21T05:06:15;4.90;82.66
69589;SHT31;56792;50.644;17.984;2023-04-21T05:08:46;4.98;82.71
69589;SHT31;56792;50.644;17.984;2023-04-21T05:11:17;5.06;82.77
69589;SHT31;56792;50.644;17.984;2023-04-21T05:13:48;5.15;82.90
69589;SHT31;56792;50.644;17.984;2023-04-21T05:16:19;5.24;83.12
69589;SHT31;56792;50.644;17.984;2023-04-21T05:18:50;5.34;83.29
69589;SHT31;56792;50.644;17.984;2023-04-21T05:21:25;5.46;83.62
69589;SHT31;56792;50.644;17.984;2023-04-21T05:23:57;5.58;83.66
69589;SHT31;56792;50.644;17.984;2023-04-21T05:26:28;5.69;83.60
69589;SHT31;56792;50.644;17.984;2023-04-21T05:28:59;5.81;83.61
69589;SHT31;56792;50.644;17.984;2023-04-21T05:31:30;5.93;83.70
69589;SHT31;56792;50.644;17.984;2023-04-21T05:34:01;6.05;83.60
69589;SHT31;56792;50.644;17.984;2023-04-21T05:36:32;6.18;83.87
69589;SHT31;56792;50.644;17.984;2023-04-21T05:39:03;6.33;83.73
69589;SHT31;56792;50.644;17.984;2023-04-21T05:41:34;6.46;83.43
69589;SHT31;56792;50.644;17.984;2023-04-21T05:44:05;6.58;83.30
69589;SHT31;56792;50.644;17.984;2023-04-21T05:46:36;6.73;83.11
69589;SHT31;56792;50.644;17.984;2023-04-21T05:49:07;6.88;82.94
69589;SHT31;56792;50.644;17.984;2023-04-21T05:51:38;7.04;82.89
69589;SHT31;56792;50.644;17.984;2023-04-21T05:54:09;7.20;82.77
69589;SHT31;56792;50.644;17.984;2023-04-21T05:56:42;7.39;82.93
69589;SHT31;56792;50.644;17.984;2023-04-21T05:59:13;7.56;82.74
69589;SHT31;56792;50.644;17.984;2023-04-21T06:01:44;7.78;82.63
69589;SHT31;56792;50.644;17.984;2023-04-21T06:04:15;7.98;82.09
69589;SHT31;56792;50.644;17.984;2023-04-21T06:06:46;8.17;81.76
69589;SHT31;56792;50.644;17.984;2023-04-21T06:09:17;8.37;81.42
69589;SHT31;56792;50.644;17.984;2023-04-21T06:11:48;8.58;80.67
69589;SHT31;56792;50.644;17.984;2023-04-21T06:14:19;8.79;80.01
69589;SHT31;56792;50.644;17.984;2023-04-21T06:16:50;9.02;79.46
69589;SHT31;56792;50.644;17.984;2023-04-21T06:19:21;9.26;79.05
69589;SHT31;56792;50.644;17.984;2023-04-21T06:21:53;9.49;78.31
69589;SHT31;56792;50.644;17.984;2023-04-21T06:24:24;9.71;77.86
69589;SHT31;56792;50.644;17.984;2023-04-21T06:27:00;9.95;77.63
69589;SHT31;56792;50.644;17.984;2023-04-21T06:29:36;10.19;77.48
69589;SHT31;56792;50.644;17.984;2023-04-21T06:32:10;10.43;76.25
69589;SHT31;56792;50.644;17.984;2023-04-21T06:34:41;10.63;76.16
69589;SHT31;56792;50.644;17.984;2023-04-21T06:37:12;10.87;76.13
69589;SHT31;56792;50.644;17.984;2023-04-21T06:39:43;11.16;76.30
69589;SHT31;56792;50.644;17.984;2023-04-21T06:42:14;11.42;75.08
69589;SHT31;56792;50.644;17.984;2023-04-21T06:44:45;11.68;74.61
69589;SHT31;56792;50.644;17.984;2023-04-21T06:47:16;11.94;74.08
69589;SHT31;56792;50.644;17.984;2023-04-21T06:49:47;12.19;72.69
69589;SHT31;56792;50.644;17.984;2023-04-21T06:52:19;12.40;71.69
69589;SHT31;56792;50.644;17.984;2023-04-21T06:54:50;12.60;70.50
69589;SHT31;56792;50.644;17.984;2023-04-21T06:57:21;12.83;69.83
69589;SHT31;56792;50.644;17.984;2023-04-21T06:59:52;13.05;68.70
69589;SHT31;56792;50.644;17.984;2023-04-21T07:02:23;13.26;67.78
69589;SHT31;56792;50.644;17.984;2023-04-21T07:04:54;13.45;66.80
69589;SHT31;56792;50.644;17.984;2023-04-21T07:07:25;13.67;66.78
69589;SHT31;56792;50.644;17.984;2023-04-21T07:09:56;13.87;65.80
69589;SHT31;56792;50.644;17.984;2023-04-21T07:12:27;14.10;65.28
69589;SHT31;56792;50.644;17.984;2023-04-21T07:14:58;14.30;64.20
69589;SHT31;56792;50.644;17.984;2023-04-21T07:17:29;14.53;64.35
69589;SHT31;56792;50.644;17.984;2023-04-21T07:20:00;14.68;63.31
69589;SHT31;56792;50.644;17.984;2023-04-21T07:22:31;14.78;62.84
69589;SHT31;56792;50.644;17.984;2023-04-21T07:25:02;14.92;62.22
69589;SHT31;56792;50.644;17.984;2023-04-21T07:27:35;15.07;61.21
69589;SHT31;56792;50.644;17.984;2023-04-21T07:30:07;15.16;61.02
69589;SHT31;56792;50.644;17.984;2023-04-21T07:32:39;15.23;59.98
69589;SHT31;56792;50.644;17.984;2023-04-21T07:35:11;15.42;61.19
69589;SHT31;56792;50.644;17.984;2023-04-21T07:37:42;15.71;60.94
69589;SHT31;56792;50.644;17.984;2023-04-21T07:40:13;16.02;61.16
69589;SHT31;56792;50.644;17.984;2023-04-21T07:42:45;16.28;59.83
69589;SHT31;56792;50.644;17.984;2023-04-21T07:45:16;16.44;58.59
69589;SHT31;56792;50.644;17.984;2023-04-21T07:47:47;16.64;59.02
69589;SHT31;56792;50.644;17.984;2023-04-21T07:50:18;16.91;59.35
69589;SHT31;56792;50.644;17.984;2023-04-21T07:52:49;17.21;58.74
69589;SHT31;56792;50.644;17.984;2023-04-21T07:55:20;17.43;58.15
69589;SHT31;56792;50.644;17.984;2023-04-21T07:57:51;17.65;57.37
69589;SHT31;56792;50.644;17.984;2023-04-21T08:00:22;17.85;56.94
69589;SHT31;56792;50.644;17.984;2023-04-21T08:02:54;18.07;57.03
69589;SHT31;56792;50.644;17.984;2023-04-21T08:05:25;18.33;56.89
69589;SHT31;56792;50.644;17.984;2023-04-21T08:07:57;18.55;56.52
69589;SHT31;56792;50.644;17.984;2023-04-21T08:10:29;18.77;56.45
69589;SHT31;56792;50.644;17.984;2023-04-21T08:13:00;19.00;55.71
69589;SHT31;56792;50.644;17.984;2023-04-21T08:15:32;19.22;55.39
69589;SHT31;56792;50.644;17.984;2023-04-21T08:18:03;19.36;55.70
69589;SHT31;56792;50.644;17.984;2023-04-21T08:20:34;19.56;54.04
69589;SHT31;56792;50.644;17.984;2023-04-21T08:23:05;19.70;52.65
69589;SHT31;56792;50.644;17.984;2023-04-21T08:25:36;19.96;53.16
69589;SHT31;56792;50.644;17.984;2023-04-21T08:28:07;20.18;51.90
69589;SHT31;56792;50.644;17.984;2023-04-21T08:30:39;20.32;50.99
69589;SHT31;56792;50.644;17.984;2023-04-21T08:33:11;20.50;52.20
69589;SHT31;56792;50.644;17.984;2023-04-21T08:35:42;20.77;50.74
69589;SHT31;56792;50.644;17.984;2023-04-21T08:38:13;21.03;51.01
69589;SHT31;56792;50.644;17.984;2023-04-21T08:40:44;21.31;51.35
69589;SHT31;56792;50.644;17.984;2023-04-21T08:43:15;21.56;49.87
69589;SHT31;56792;50.644;17.984;2023-04-21T08:45:46;21.78;49.10
69589;SHT31;56792;50.644;17.984;2023-04-21T08:48:19;21.93;48.33
69589;SHT31;56792;50.644;17.984;2023-04-21T08:50:51;22.05;47.39
69589;SHT31;56792;50.644;17.984;2023-04-21T08:53:22;22.26;47.41
69589;SHT31;56792;50.644;17.984;2023-04-21T08:55:54;22.57;47.04
69589;SHT31;56792;50.644;17.984;2023-04-21T08:58:25;22.86;46.47
69589;SHT31;56792;50.644;17.984;2023-04-21T09:00:56;23.06;46.51
69589;SHT31;56792;50.644;17.984;2023-04-21T09:03:28;23.25;46.38
69589;SHT31;56792;50.644;17.984;2023-04-21T09:06:00;23.47;45.36
69589;SHT31;56792;50.644;17.984;2023-04-21T09:08:33;23.60;44.59
69589;SHT31;56792;50.644;17.984;2023-04-21T09:11:09;23.70;43.51
69589;SHT31;56792;50.644;17.984;2023-04-21T09:13:43;23.83;43.46
69589;SHT31;56792;50.644;17.984;2023-04-21T09:16:17;24.04;43.08
69589;SHT31;56792;50.644;17.984;2023-04-21T09:18:49;24.22;42.42
69589;SHT31;56792;50.644;17.984;2023-04-21T09:21:21;24.43;43.19
69589;SHT31;56792;50.644;17.984;2023-04-21T09:23:59;24.75;42.85
69589;SHT31;56792;50.644;17.984;2023-04-21T09:26:35;24.91;42.02
69589;SHT31;56792;50.644;17.984;2023-04-21T09:29:09;25.27;41.53
69589;SHT31;56792;50.644;17.984;2023-04-21T09:31:39;27.12;39.69
69589;SHT31;56792;50.644;17.984;2023-04-21T09:34:17;29.18;36.78
69589;SHT31;56792;50.644;17.984;2023-04-21T09:36:59;30.41;36.22
69589;SHT31;56792;50.644;17.984;2023-04-21T09:39:31;29.48;36.07
69589;SHT31;56792;50.644;17.984;2023-04-21T09:42:02;28.73;35.92
69589;SHT31;56792;50.644;17.984;2023-04-21T09:44:37;27.90;34.78
69589;SHT31;56792;50.644;17.984;2023-04-21T09:47:09;27.57;34.94
69589;SHT31;56792;50.644;17.984;2023-04-21T09:49:41;27.60;35.30
69589;SHT31;56792;50.644;17.984;2023-04-21T09:52:13;27.75;34.95
69589;SHT31;56792;50.644;17.984;2023-04-21T09:54:48;28.05;33.60
69589;SHT31;56792;50.644;17.984;2023-04-21T09:57:24;27.79;33.13
69589;SHT31;56792;50.644;17.984;2023-04-21T10:00:01;27.34;33.22
69589;SHT31;56792;50.644;17.984;2023-04-21T10:02:38;27.00;31.54
69589;SHT31;56792;50.644;17.984;2023-04-21T10:05:15;27.89;30.77
69589;SHT31;56792;50.644;17.984;2023-04-21T10:07:46;30.32;29.19
69589;SHT31;56792;50.644;17.984;2023-04-21T10:10:21;30.18;28.97
69589;SHT31;56792;50.644;17.984;2023-04-21T10:12:55;28.71;30.20
69589;SHT31;56792;50.644;17.984;2023-04-21T10:15:30;27.83;30.58
69589;SHT31;56792;50.644;17.984;2023-04-21T10:18:16;29.51;30.33
69589;SHT31;56792;50.644;17.984;2023-04-21T10:20:52;32.51;29.12
69589;SHT31;56792;50.644;17.984;2023-04-21T10:23:31;34.70;27.14
69589;SHT31;56792;50.644;17.984;2023-04-21T10:26:11;36.63;25.56
69589;SHT31;56792;50.644;17.984;2023-04-21T10:28:47;37.97;24.55
69589;SHT31;56792;50.644;17.984;2023-04-21T10:31:24;39.14;23.60
69589;SHT31;56792;50.644;17.984;2023-04-21T10:34:12;40.08;22.52
69589;SHT31;56792;50.644;17.984;2023-04-21T10:37:08;38.42;22.37
69589;SHT31;56792;50.644;17.984;2023-04-21T10:39:50;35.41;22.66
69589;SHT31;56792;50.644;17.984;2023-04-21T10:42:32;33.66;23.76
69589;SHT31;56792;50.644;17.984;2023-04-21T10:45:08;35.50;23.47
69589;SHT31;56792;50.644;17.984;2023-04-21T10:47:46;36.76;22.24
69589;SHT31;56792;50.644;17.984;2023-04-21T10:50:20;34.74;22.83
69589;SHT31;56792;50.644;17.984;2023-04-21T10:52:57;34.39;23.21
69589;SHT31;56792;50.644;17.984;2023-04-21T10:55:37;36.86;22.34
69589;SHT31;56792;50.644;17.984;2023-04-21T10:58:08;38.34;21.87
69589;SHT31;56792;50.644;17.984;2023-04-21T11:00:42;36.51;21.62
69589;SHT31;56792;50.644;17.984;2023-04-21T11:03:13;34.28;22.43
69589;SHT31;56792;50.644;17.984;2023-04-21T11:05:44;32.60;23.21
69589;SHT31;56792;50.644;17.984;2023-04-21T11:08:15;31.21;23.82
69589;SHT31;56792;50.644;17.984;2023-04-21T11:10:47;30.01;24.28
69589;SHT31;56792;50.644;17.984;2023-04-21T11:13:24;29.02;25.07
69589;SHT31;56792;50.644;17.984;2023-04-21T11:16:03;28.28;26.01
69589;SHT31;56792;50.644;17.984;2023-04-21T11:18:41;27.95;26.31
69589;SHT31;56792;50.644;17.984;2023-04-21T11:21:14;27.30;26.60
69589;SHT31;56792;50.644;17.984;2023-04-21T11:23:51;26.71;27.06
69589;SHT31;56792;50.644;17.984;2023-04-21T11:26:31;26.42;27.43
69589;SHT31;56792;50.644;17.984;2023-04-21T11:29:31;29.13;27.08
69589;SHT31;56792;50.644;17.984;2023-04-21T11:32:03;30.66;25.76
69589;SHT31;56792;50.644;17.984;2023-04-21T11:34:36;33.36;24.48
69589;SHT31;56792;50.644;17.984;2023-04-21T11:37:08;35.00;23.26
69589;SHT31;56792;50.644;17.984;2023-04-21T11:39:43;34.88;23.17
69589;SHT31;56792;50.644;17.984;2023-04-21T11:42:18;36.69;22.29
69589;SHT31;56792;50.644;17.984;2023-04-21T11:44:52;38.22;20.99
69589;SHT31;56792;50.644;17.984;2023-04-21T11:47:25;36.56;20.97
69589;SHT31;56792;50.644;17.984;2023-04-21T11:49:57;34.23;21.40
69589;SHT31;56792;50.644;17.984;2023-04-21T11:52:30;32.46;22.31
69589;SHT31;56792;50.644;17.984;2023-04-21T11:55:03;33.03;22.34
69589;SHT31;56792;50.644;17.984;2023-04-21T11:57:41;34.77;21.44
69589;SHT31;56792;50.644;17.984;2023-04-21T12:00:12;34.60;21.59
69589;SHT31;56792;50.644;17.984;2023-04-21T12:02:52;36.59;20.89
69589;SHT31;56792;50.644;17.984;2023-04-21T12:05:24;37.59;20.51
69589;SHT31;56792;50.644;17.984;2023-04-21T12:08:03;35.54;20.09
69589;SHT31;56792;50.644;17.984;2023-04-21T12:10:42;34.11;20.45
69589;SHT31;56792;50.644;17.984;2023-04-21T12:13:19;33.65;20.78
69589;SHT31;56792;50.644;17.984;2023-04-21T12:15:53;35.48;20.84
69589;SHT31;56792;50.644;17.984;2023-04-21T12:18:27;34.29;20.99
69589;SHT31;56792;50.644;17.984;2023-04-21T12:21:00;32.65;21.54
69589;SHT31;56792;50.644;17.984;2023-04-21T12:23:31;31.33;22.37
69589;SHT31;56792;50.644;17.984;2023-04-21T12:26:02;30.25;22.90
69589;SHT31;56792;50.644;17.984;2023-04-21T12:28:33;29.26;23.49
69589;SHT31;56792;50.644;17.984;2023-04-21T12:31:04;28.44;24.20
69589;SHT31;56792;50.644;17.984;2023-04-21T12:33:35;27.68;24.25
69589;SHT31;56792;50.644;17.984;2023-04-21T12:36:07;27.06;24.80
69589;SHT31;56792;50.644;17.984;2023-04-21T12:38:38;26.96;25.06
69589;SHT31;56792;50.644;17.984;2023-04-21T12:41:10;28.87;25.08
69589;SHT31;56792;50.644;17.984;2023-04-21T12:43:41;32.02;24.21
69589;SHT31;56792;50.644;17.984;2023-04-21T12:46:12;34.15;22.04
69589;SHT31;56792;50.644;17.984;2023-04-21T12:48:43;33.12;21.55
69589;SHT31;56792;50.644;17.984;2023-04-21T12:51:14;31.36;22.26
69589;SHT31;56792;50.644;17.984;2023-04-21T12:53:45;30.05;23.07
69589;SHT31;56792;50.644;17.984;2023-04-21T12:56:17;29.05;24.12
69589;SHT31;56792;50.644;17.984;2023-04-21T12:58:48;28.37;24.51
69589;SHT31;56792;50.644;17.984;2023-04-21T13:01:19;27.74;24.48
69589;SHT31;56792;50.644;17.984;2023-04-21T13:03:51;28.12;24.88
69589;SHT31;56792;50.644;17.984;2023-04-21T13:06:21;30.60;24.02
69589;SHT31;56792;50.644;17.984;2023-04-21T13:08:53;32.29;23.21
69589;SHT31;56792;50.644;17.984;2023-04-21T13:11:24;34.70;21.44
69589;SHT31;56792;50.644;17.984;2023-04-21T13:13:55;36.73;20.47
69589;SHT31;56792;50.644;17.984;2023-04-21T13:16:26;38.25;19.78
69589;SHT31;56792;50.644;17.984;2023-04-21T13:18:57;39.42;18.76
69589;SHT31;56792;50.644;17.984;2023-04-21T13:21:29;40.34;18.04
69589;SHT31;56792;50.644;17.984;2023-04-21T13:24:00;40.98;17.82
69589;SHT31;56792;50.644;17.984;2023-04-21T13:26:31;41.62;17.74
69589;SHT31;56792;50.644;17.984;2023-04-21T13:29:03;41.96;17.43
69589;SHT31;56792;50.644;17.984;2023-04-21T13:31:34;41.06;17.65
69589;SHT31;56792;50.644;17.984;2023-04-21T13:34:05;39.02;17.57
69589;SHT31;56792;50.644;17.984;2023-04-21T13:36:36;36.83;17.30
69589;SHT31;56792;50.644;17.984;2023-04-21T13:39:10;34.94;17.37
69589;SHT31;56792;50.644;17.984;2023-04-21T13:41:41;33.59;18.48
69589;SHT31;56792;50.644;17.984;2023-04-21T13:44:12;32.73;19.67
69589;SHT31;56792;50.644;17.984;2023-04-21T13:46:43;31.99;20.44
69589;SHT31;56792;50.644;17.984;2023-04-21T13:49:16;31.37;21.00
69589;SHT31;56792;50.644;17.984;2023-04-21T13:51:47;30.77;21.07
69589;SHT31;56792;50.644;17.984;2023-04-21T13:54:18;30.09;21.63
69589;SHT31;56792;50.644;17.984;2023-04-21T13:56:49;29.44;22.14
69589;SHT31;56792;50.644;17.984;2023-04-21T13:59:21;28.75;22.82
69589;SHT31;56792;50.644;17.984;2023-04-21T14:01:52;28.16;23.65
69589;SHT31;56792;50.644;17.984;2023-04-21T14:04:23;27.57;23.57
69589;SHT31;56792;50.644;17.984;2023-04-21T14:06:54;27.01;23.74
69589;SHT31;56792;50.644;17.984;2023-04-21T14:09:25;26.45;24.17
69589;SHT31;56792;50.644;17.984;2023-04-21T14:11:56;25.99;25.18
69589;SHT31;56792;50.644;17.984;2023-04-21T14:14:27;25.55;25.35
69589;SHT31;56792;50.644;17.984;2023-04-21T14:16:58;25.24;26.07
69589;SHT31;56792;50.644;17.984;2023-04-21T14:19:29;24.98;25.83
69589;SHT31;56792;50.644;17.984;2023-04-21T14:22:00;24.79;26.06
69589;SHT31;56792;50.644;17.984;2023-04-21T14:24:31;24.69;26.76
69589;SHT31;56792;50.644;17.984;2023-04-21T14:27:02;24.64;27.03
69589;SHT31;56792;50.644;17.984;2023-04-21T14:29:33;24.63;27.95
69589;SHT31;56792;50.644;17.984;2023-04-21T14:32:04;24.62;27.50
69589;SHT31;56792;50.644;17.984;2023-04-21T14:34:35;24.62;27.68
69589;SHT31;56792;50.644;17.984;2023-04-21T14:37:06;24.65;27.63
69589;SHT31;56792;50.644;17.984;2023-04-21T14:39:37;24.68;27.63
69589;SHT31;56792;50.644;17.984;2023-04-21T14:42:08;24.66;28.17
69589;SHT31;56792;50.644;17.984;2023-04-21T14:44:38;24.63;27.60
69589;SHT31;56792;50.644;17.984;2023-04-21T14:47:09;24.51;27.27
69589;SHT31;56792;50.644;17.984;2023-04-21T14:49:41;24.43;27.81
69589;SHT31;56792;50.644;17.984;2023-04-21T14:52:12;24.37;28.49
69589;SHT31;56792;50.644;17.984;2023-04-21T14:54:44;24.26;27.35
69589;SHT31;56792;50.644;17.984;2023-04-21T14:57:15;24.02;26.95
69589;SHT31;56792;50.644;17.984;2023-04-21T14:59:47;23.83;27.59
69589;SHT31;56792;50.644;17.984;2023-04-21T15:02:19;23.65;27.22
69589;SHT31;56792;50.644;17.984;2023-04-21T15:04:50;23.45;27.11
69589;SHT31;56792;50.644;17.984;2023-04-21T15:07:22;23.32;27.93
69589;SHT31;56792;50.644;17.984;2023-04-21T15:09:53;23.21;27.54
69589;SHT31;56792;50.644;17.984;2023-04-21T15:12:24;22.99;26.54
69589;SHT31;56792;50.644;17.984;2023-04-21T15:14:55;22.72;26.67
69589;SHT31;56792;50.644;17.984;2023-04-21T15:17:26;22.58;27.85
69589;SHT31;56792;50.644;17.984;2023-04-21T15:19:57;22.52;29.14
69589;SHT31;56792;50.644;17.984;2023-04-21T15:22:28;22.47;29.73
69589;SHT31;56792;50.644;17.984;2023-04-21T15:24:59;22.46;29.54
69589;SHT31;56792;50.644;17.984;2023-04-21T15:27:31;22.43;29.81
69589;SHT31;56792;50.644;17.984;2023-04-21T15:30:02;22.41;30.08
69589;SHT31;56792;50.644;17.984;2023-04-21T15:32:35;22.36;30.17
69589;SHT31;56792;50.644;17.984;2023-04-21T15:35:06;22.29;29.74
69589;SHT31;56792;50.644;17.984;2023-04-21T15:37:38;22.21;29.57
69589;SHT31;56792;50.644;17.984;2023-04-21T15:40:09;22.12;29.39
69589;SHT31;56792;50.644;17.984;2023-04-21T15:42:41;22.00;29.45
69589;SHT31;56792;50.644;17.984;2023-04-21T15:45:12;21.92;29.87
69589;SHT31;56792;50.644;17.984;2023-04-21T15:47:43;21.85;29.84
69589;SHT31;56792;50.644;17.984;2023-04-21T15:50:14;21.76;30.29
69589;SHT31;56792;50.644;17.984;2023-04-21T15:52:46;21.71;30.65